Time;durP1;ratioP1;P1;durP2;ratioP2;P2;SDS_P1;SDS_P2;PMS_P1;PMS_P2;Temp;Humidity;BMP_temperature;BMP_pressure;BME280_temperature;BME280_humidity;BME280_pressure;Samples;Min_cycle;Max_cycle;Signal;HPM_P1;HPM_P2
2022/06/13 00:00:39;;;;;;;4.95;1.90;;;;;;;15.93;58.17;100705.31;5112988;28;20055;-52
2022/06/13 00:03:06;;;;;;;4.65;2.10;;;;;;;15.88;58.70;100711.16;5104268;28;20055;-53
2022/06/13 00:05:35;;;;;;;3.58;1.77;;;;;;;15.81;58.71;100704.09;5114040;28;20488;-53
2022/06/13 00:08:05;;;;;;;2.83;1.77;;;;;;;15.76;59.15;100709.09;5114490;28;20052;-53
2022/06/13 00:10:32;;;;;;;;;;;;;;;15.71;59.42;100710.09;5114763;28;20055;-52
2022/06/13 00:13:00;;;;;;;2.80;1.70;;;;;;;15.63;59.31;100708.19;5101931;28;20283;-53
2022/06/13 00:15:27;;;;;;;4.25;1.70;;;;;;;15.56;59.36;100711.56;5093860;28;20373;-53
2022/06/13 00:17:55;;;;;;;3.33;1.95;;;;;;;15.51;59.69;100710.94;5097268;28;20048;-53
2022/06/13 00:20:22;;;;;;;3.65;1.98;;;;;;;15.49;59.82;100711.25;5112520;28;20423;-54
2022/06/13 00:22:50;;;;;;;3.35;2.03;;;;;;;15.38;60.67;100699.63;5114647;28;20387;-54
2022/06/13 00:25:19;;;;;;;3.95;1.85;;;;;;;15.34;61.12;100698.66;5114329;28;20051;-54
2022/06/13 00:27:46;;;;;;;5.28;2.20;;;;;;;15.27;61.17;100697.59;5114529;28;20071;-53
2022/06/13 00:30:14;;;;;;;4.75;1.90;;;;;;;15.20;61.64;100686.88;5113928;28;20511;-53
2022/06/13 00:32:41;;;;;;;6.68;2.20;;;;;;;15.16;61.28;100688.72;5110964;28;20483;-54
2022/06/13 00:35:09;;;;;;;4.85;2.45;;;;;;;15.11;61.50;100688.94;5113615;28;20395;-53
2022/06/13 00:37:37;;;;;;;3.38;2.17;;;;;;;15.01;61.85;100679.75;5114155;28;20404;-52
2022/06/13 00:40:06;;;;;;;5.70;2.08;;;;;;;14.97;62.13;100675.97;5114065;28;20495;-52
2022/06/13 00:42:35;;;;;;;5.00;2.30;;;;;;;14.86;62.37;100680.31;5114261;28;20059;-53
2022/06/13 00:45:11;;;;;;;3.17;2.05;;;;;;;14.80;62.72;100673.25;5095121;28;20048;-53
2022/06/13 00:47:41;;;;;;;5.45;2.38;;;;;;;14.71;62.95;100666.88;5103772;28;20051;-53
2022/06/13 00:50:12;;;;;;;8.50;2.70;;;;;;;14.60;63.16;100675.66;5113113;28;20056;-53
2022/06/13 00:52:45;;;;;;;3.67;2.03;;;;;;;14.53;63.42;100680.13;5114162;28;20051;-54
2022/06/13 00:55:15;;;;;;;4.05;2.08;;;;;;;14.47;63.70;100671.09;5113147;28;20114;-54
2022/06/13 00:57:44;;;;;;;5.38;2.20;;;;;;;14.41;63.61;100666.81;5114158;28;20059;-53
2022/06/13 01:00:18;;;;;;;5.57;2.45;;;;;;;14.35;63.66;100668.97;5113460;28;20062;-50
2022/06/13 01:02:48;;;;;;;6.50;3.00;;;;;;;14.30;63.86;100666.38;5081195;28;20544;-50
2022/06/13 01:05:20;;;;;;;6.85;2.38;;;;;;;14.24;64.46;100666.88;5072248;28;20053;-53
2022/06/13 01:07:49;;;;;;;6.75;2.17;;;;;;;14.19;64.11;100668.72;5072969;28;20067;-52
2022/06/13 01:13:06;;;;;;;4.65;2.20;;;;;;;14.04;64.55;100665.63;5073132;28;20064;-51
2022/06/13 01:15:46;;;;;;;7.60;2.30;;;;;;;13.98;64.77;100664.97;5087580;28;20382;-53
2022/06/13 01:18:33;;;;;;;5.07;2.80;;;;;;;13.95;64.81;100655.25;5101141;28;20071;-51
2022/06/13 01:21:11;;;;;;;5.75;2.47;;;;;;;13.90;65.00;100668.59;5072639;28;20488;-54
2022/06/13 01:24:14;;;;;;;3.78;2.35;;;;;;;13.84;65.27;100662.38;5072744;28;20056;-50
2022/06/13 01:27:01;;;;;;;4.28;2.35;;;;;;;13.79;65.32;100670.94;5072430;28;20056;-53
2022/06/13 01:29:45;;;;;;;4.38;2.47;;;;;;;13.72;65.32;100665.84;5071888;28;20060;-53
2022/06/13 01:32:26;;;;;;;7.82;2.83;;;;;;;13.66;65.75;100669.94;5090986;28;20059;-53
2022/06/13 01:35:07;;;;;;;5.82;2.80;;;;;;;13.65;65.60;100671.13;5109653;28;20048;-53
2022/06/13 01:37:45;;;;;;;4.82;2.58;;;;;;;13.60;66.17;100666.50;5113347;28;20058;-52
2022/06/13 01:40:24;;;;;;;4.32;2.40;;;;;;;13.57;66.37;100674.75;5112812;28;20078;-54
2022/06/13 01:43:05;;;;;;;5.15;2.22;;;;;;;13.54;66.68;100670.63;5113083;28;20491;-52
2022/06/13 01:45:44;;;;;;;6.57;2.50;;;;;;;13.48;66.39;100673.91;5071744;28;20040;-52
2022/06/13 01:48:27;;;;;;;7.30;3.08;;;;;;;13.43;66.65;100666.50;5080873;28;21707;-53
2022/06/13 01:51:01;;;;;;;4.40;2.67;;;;;;;13.37;66.60;100670.59;5112316;28;20058;-53
2022/06/13 01:53:43;;;;;;;4.40;2.35;;;;;;;13.35;66.89;100670.94;5112316;28;20052;-53
2022/06/13 01:56:13;;;;;;;3.97;2.30;;;;;;;13.32;66.71;100680.00;5111570;28;20468;-53
2022/06/13 01:58:47;;;;;;;4.75;2.42;;;;;;;13.27;67.59;100684.88;5112676;28;20492;-53
2022/06/13 02:01:20;;;;;;;5.18;2.83;;;;;;;13.23;67.77;100681.94;5106519;28;20047;-54
2022/06/13 02:03:51;;;;;;;4.90;2.83;;;;;;;13.24;67.80;100686.38;5111785;28;20052;-53
2022/06/13 02:06:23;;;;;;;4.07;2.35;;;;;;;13.26;67.66;100689.66;5112559;28;20468;-53
2022/06/13 02:08:57;;;;;;;5.55;2.70;;;;;;;13.29;68.14;100686.25;5112235;28;20055;-53
2022/06/13 02:11:29;;;;;;;7.40;2.78;;;;;;;13.30;67.78;100689.88;5112098;28;20058;-53
2022/06/13 02:14:03;;;;;;;5.30;2.65;;;;;;;13.31;68.32;100694.31;5110892;28;20055;-54
2022/06/13 02:16:37;;;;;;;4.30;2.47;;;;;;;13.34;67.54;100691.69;5091132;28;20048;-54
2022/06/13 02:19:12;;;;;;;5.35;3.05;;;;;;;13.32;67.26;100688.38;5108764;28;20052;-54
2022/06/13 02:21:45;;;;;;;4.68;3.10;;;;;;;13.30;67.48;100695.47;5110408;28;20043;-53
2022/06/13 02:24:18;;;;;;;6.35;2.92;;;;;;;13.26;67.94;100691.66;5112016;28;20408;-59
2022/06/13 02:26:50;;;;;;;6.03;3.17;;;;;;;13.25;67.92;100687.19;5112286;28;20453;-59
2022/06/13 02:29:21;;;;;;;5.60;2.70;;;;;;;13.24;68.29;100674.38;5114558;28;20074;-59
2022/06/13 02:31:55;;;;;;;5.95;3.05;;;;;;;13.20;68.65;100677.81;5116464;28;20057;-59
2022/06/13 02:34:29;;;;;;;6.55;3.00;;;;;;;13.23;68.55;100672.69;5116150;28;20048;-59
2022/06/13 02:37:02;;;;;;;5.97;3.03;;;;;;;13.22;68.10;100668.28;5111655;28;20074;-59
2022/06/13 02:39:35;;;;;;;4.78;2.80;;;;;;;13.20;67.97;100674.19;5116466;28;20047;-51
2022/06/13 02:42:07;;;;;;;6.18;3.10;;;;;;;13.19;68.25;100678.16;5116352;28;20059;-52
2022/06/13 02:44:38;;;;;;;4.55;2.78;;;;;;;13.12;68.67;100673.06;5116045;28;20082;-52
2022/06/13 02:47:13;;;;;;;5.18;2.70;;;;;;;13.13;68.88;100674.69;5116193;28;20404;-52
2022/06/13 02:49:46;;;;;;;5.57;2.70;;;;;;;13.12;68.65;100677.78;5116448;28;20054;-52
2022/06/13 02:52:19;;;;;;;6.07;2.78;;;;;;;13.10;68.50;100674.50;5112977;28;20066;-53
2022/06/13 02:54:50;;;;;;;5.72;2.83;;;;;;;13.09;68.51;100670.06;5115881;28;20443;-52
2022/06/13 02:57:36;;;;;;;5.05;3.03;;;;;;;13.07;68.65;100680.75;5115837;28;20134;-50
2022/06/13 03:00:19;;;;;;;6.72;3.53;;;;;;;13.07;68.90;100683.56;5115532;28;20542;-51
2022/06/13 03:03:10;;;;;;;4.70;2.72;;;;;;;13.05;68.82;100677.47;5115841;28;20047;-52
2022/06/13 03:05:59;;;;;;;6.80;2.65;;;;;;;13.06;68.21;100667.91;5110359;28;20044;-52
2022/06/13 03:08:44;;;;;;;;;;;;;;;12.98;68.26;100661.19;5115839;28;20514;-52
2022/06/13 03:11:28;;;;;;;4.63;2.85;;;;;;;12.95;68.90;100668.22;5115740;28;19919;-52
2022/06/13 03:14:05;;;;;;;7.82;3.33;;;;;;;12.98;69.69;100664.78;5114592;28;20494;-52
2022/06/13 03:16:36;;;;;;;7.05;3.80;;;;;;;13.04;70.15;100668.25;5096286;28;20055;-53
2022/06/13 03:19:09;;;;;;;4.82;2.95;;;;;;;13.12;69.81;100663.81;5115764;28;20047;-54
2022/06/13 03:21:45;;;;;;;8.05;3.55;;;;;;;13.15;69.91;100666.78;5115790;28;20055;-53
2022/06/13 03:24:18;;;;;;;5.97;3.13;;;;;;;13.23;69.48;100672.69;5115375;28;20174;-52
2022/06/13 03:26:54;;;;;;;5.65;3.10;;;;;;;13.28;69.00;100667.78;5115298;28;20361;-51
2022/06/13 03:29:28;;;;;;;4.97;2.95;;;;;;;13.35;68.79;100679.31;5115021;28;20051;-50
2022/06/13 03:32:03;;;;;;;5.15;2.85;;;;;;;13.43;68.77;100680.50;5109326;28;20050;-53
2022/06/13 03:34:35;;;;;;;7.13;3.10;;;;;;;13.51;68.49;100690.06;5114817;28;20059;-51
2022/06/13 03:37:10;;;;;;;6.47;2.83;;;;;;;13.56;68.56;100681.47;5115344;28;20055;-50
2022/06/13 03:39:42;;;;;;;7.03;2.85;;;;;;;13.60;67.74;100685.25;5113513;28;20058;-52
2022/06/13 03:42:16;;;;;;;6.45;2.67;;;;;;;13.67;67.37;100677.22;5115036;28;20059;-53
2022/06/13 03:44:50;;;;;;;6.00;3.03;;;;;;;13.70;66.88;100684.94;5115103;28;20059;-54
2022/06/13 03:47:24;;;;;;;4.93;2.63;;;;;;;13.72;66.57;100690.22;5109924;28;20377;-53
2022/06/13 03:49:57;;;;;;;5.57;2.83;;;;;;;13.79;66.73;100688.53;5114758;28;20058;-54
2022/06/13 03:52:29;;;;;;;6.47;3.08;;;;;;;13.83;66.48;100682.28;5114712;28;20047;-52
2022/06/13 03:55:05;;;;;;;5.18;2.70;;;;;;;13.77;66.70;100681.63;5114926;28;20406;-53
2022/06/13 03:57:37;;;;;;;7.57;2.78;;;;;;;13.86;66.83;100681.63;5114713;28;20062;-53
2022/06/13 04:00:10;;;;;;;6.47;2.95;;;;;;;13.99;67.29;100680.63;5114626;28;20078;-52
2022/06/13 04:02:42;;;;;;;4.68;3.00;;;;;;;14.14;66.96;100685.69;5111592;28;20055;-51
2022/06/13 04:05:17;;;;;;;4.90;2.70;;;;;;;14.33;66.21;100692.91;5114859;28;20055;-52
2022/06/13 04:07:47;;;;;;;5.68;2.90;;;;;;;14.46;65.92;100680.63;5114120;28;20047;-52
2022/06/13 04:10:17;;;;;;;6.38;3.22;;;;;;;14.58;65.37;100677.97;5114502;28;20055;-54
2022/06/13 04:12:56;;;;;;;5.95;2.70;;;;;;;14.66;65.19;100673.50;5114732;28;20056;-53
2022/06/13 04:15:51;;;;;;;6.30;3.28;;;;;;;14.67;65.02;100672.34;5099677;28;20064;-53
2022/06/13 04:18:30;;;;;;;7.78;3.47;;;;;;;14.66;65.00;100678.28;5106110;28;20127;-55
2022/06/13 04:21:06;;;;;;;7.32;2.95;;;;;;;14.65;65.58;100669.03;5114407;28;20055;-54
2022/06/13 04:23:51;;;;;;;5.53;2.90;;;;;;;14.79;65.33;100672.44;5114099;28;20492;-55
2022/06/13 04:26:23;;;;;;;6.70;3.20;;;;;;;14.92;64.58;100681.78;5112271;28;20054;-54
2022/06/13 04:28:56;;;;;;;5.15;3.00;;;;;;;14.98;65.03;100688.00;5108970;28;20051;-54
2022/06/13 04:31:26;;;;;;;5.75;2.80;;;;;;;15.03;65.51;100699.03;5113918;28;20404;-54
2022/06/13 04:34:00;;;;;;;6.53;3.63;;;;;;;15.03;65.40;100696.22;5114010;28;20059;-54
2022/06/13 04:36:30;;;;;;;4.55;3.13;;;;;;;15.04;65.29;100695.06;5113575;28;20052;-54
2022/06/13 04:39:06;;;;;;;7.57;3.03;;;;;;;15.14;64.84;100693.84;5114086;28;20408;-54
2022/06/13 04:41:39;;;;;;;8.82;3.53;;;;;;;15.21;64.54;100699.75;5113277;28;20119;-54
2022/06/13 04:44:08;;;;;;;10.40;3.42;;;;;;;15.28;64.79;100697.22;5110802;28;20058;-53
2022/06/13 04:46:38;;;;;;;6.67;3.13;;;;;;;15.35;63.52;100683.47;5113495;28;20048;-54
2022/06/13 04:49:07;;;;;;;;;;;;;;;15.41;63.07;100687.72;5101971;28;20999;-52
2022/06/13 04:51:43;;;;;;;8.68;3.45;;;;;;;15.50;63.53;100695.25;5092897;28;20351;-52
2022/06/13 04:54:21;;;;;;;7.45;3.35;;;;;;;15.58;63.38;100698.00;5093084;28;20055;-53
2022/06/13 04:56:53;;;;;;;5.82;3.40;;;;;;;15.58;62.78;100702.78;5095961;28;20051;-54
2022/06/13 04:59:20;;;;;;;9.98;3.70;;;;;;;15.65;62.84;100699.44;5113640;28;20403;-51
2022/06/13 05:01:49;;;;;;;5.72;3.17;;;;;;;15.62;63.01;100689.69;5113434;28;20064;-53
2022/06/13 05:04:19;;;;;;;8.43;3.55;;;;;;;15.59;63.64;100687.56;5110445;28;20051;-53
2022/06/13 05:06:50;;;;;;;7.65;3.85;;;;;;;15.53;65.01;100677.72;5113294;28;20063;-55
2022/06/13 05:09:24;;;;;;;9.02;3.75;;;;;;;15.61;66.33;100685.25;5113669;28;20506;-52
2022/06/13 05:11:55;;;;;;;5.32;3.80;;;;;;;15.66;66.13;100676.59;5113651;28;20047;-54
2022/06/13 05:14:29;;;;;;;7.70;3.03;;;;;;;15.61;66.41;100679.63;5108202;28;20047;-54
2022/06/13 05:17:10;;;;;;;6.20;3.70;;;;;;;15.63;66.43;100677.31;5101650;28;20047;-53
2022/06/13 05:19:59;;;;;;;6.70;3.97;;;;;;;15.61;66.19;100688.88;5112942;28;20052;-54
2022/06/13 05:22:43;;;;;;;4.75;3.40;;;;;;;15.60;67.90;100680.78;5113275;28;20055;-54
2022/06/13 05:25:36;;;;;;;8.00;3.88;;;;;;;15.64;68.29;100692.97;5112848;28;20052;-56
2022/06/13 05:28:04;;;;;;;9.88;4.32;;;;;;;15.65;68.71;100705.88;5112897;28;20581;-53
2022/06/13 05:30:32;;;;;;;8.30;4.00;;;;;;;15.63;68.71;100711.81;5109481;28;20048;-51
2022/06/13 05:32:59;;;;;;;8.30;4.32;;;;;;;15.55;68.70;100714.69;5111432;28;20051;-54
2022/06/13 05:35:30;;;;;;;5.55;3.72;;;;;;;15.55;68.38;100735.16;5095071;28;20059;-54
2022/06/13 05:38:01;;;;;;;5.70;3.75;;;;;;;15.46;68.82;100750.44;5107463;28;20051;-54
2022/06/13 05:40:30;;;;;;;7.93;4.78;;;;;;;15.45;69.16;100760.84;5093169;28;20051;-54
2022/06/13 05:43:00;;;;;;;7.93;3.88;;;;;;;15.34;69.60;100757.59;5089231;28;20076;-53
2022/06/13 05:45:28;;;;;;;8.07;4.05;;;;;;;15.30;69.67;100756.63;5086313;28;20052;-53
2022/06/13 05:47:56;;;;;;;9.77;5.00;;;;;;;15.31;70.31;100765.91;5092517;28;20361;-54
2022/06/13 05:50:26;;;;;;;9.18;4.80;;;;;;;15.26;70.02;100736.03;5075985;28;20542;-53
2022/06/13 05:52:54;;;;;;;8.45;4.25;;;;;;;15.14;71.18;100744.34;5085466;28;20408;-55
2022/06/13 05:55:22;;;;;;;7.03;4.43;;;;;;;15.19;71.51;100735.75;5090859;28;20052;-54
2022/06/13 05:57:54;;;;;;;10.77;4.47;;;;;;;15.26;69.74;100738.84;5094943;28;20480;-53
2022/06/13 06:00:26;;;;;;;9.73;4.57;;;;;;;15.37;70.86;100742.06;5088425;28;20482;-54
2022/06/13 06:02:54;;;;;;;7.15;4.30;;;;;;;15.59;71.77;100738.13;5071312;28;20401;-53
2022/06/13 06:05:21;;;;;;;11.30;4.70;;;;;;;15.87;70.35;100757.25;5076102;28;20075;-53
2022/06/13 06:07:52;;;;;;;6.72;3.60;;;;;;;16.03;69.42;100761.09;5071663;28;20051;-52
2022/06/13 06:10:24;;;;;;;9.15;4.63;;;;;;;16.11;69.12;100776.22;5091727;28;20048;-51
2022/06/13 06:12:53;;;;;;;6.78;4.40;;;;;;;16.14;69.33;100770.72;5113129;28;20066;-54
2022/06/13 06:15:20;;;;;;;7.72;4.82;;;;;;;16.14;68.56;100770.72;5097834;28;20052;-54
2022/06/13 06:17:48;;;;;;;10.07;4.57;;;;;;;16.12;68.55;100789.91;5092243;28;20047;-53
2022/06/13 06:20:18;;;;;;;12.88;4.82;;;;;;;16.16;68.42;100785.25;5091719;28;20056;-54
2022/06/13 06:22:49;;;;;;;7.32;4.32;;;;;;;16.08;68.68;100776.91;5092391;28;20465;-53
2022/06/13 06:25:17;;;;;;;11.50;5.32;;;;;;;16.09;69.38;100781.38;5096711;28;20059;-52
2022/06/13 06:27:44;;;;;;;7.65;4.57;;;;;;;16.02;69.66;100774.31;5095445;28;20040;-54
2022/06/13 06:30:16;;;;;;;9.98;4.85;;;;;;;15.97;68.83;100773.69;5092939;28;20056;-54
2022/06/13 06:32:44;;;;;;;8.32;5.30;;;;;;;15.88;69.21;100772.97;5104224;28;20052;-52
2022/06/13 06:35:11;;;;;;;8.02;4.82;;;;;;;15.86;68.65;100773.28;5096612;28;20406;-52
2022/06/13 06:37:40;;;;;;;8.43;4.97;;;;;;;15.72;69.90;100767.94;5111914;28;20050;-52
2022/06/13 06:40:11;;;;;;;10.95;5.20;;;;;;;15.72;69.46;100765.13;5101762;28;20389;-53
2022/06/13 06:42:44;;;;;;;7.97;4.80;;;;;;;15.72;70.49;100765.13;5091598;28;20055;-52
2022/06/13 06:45:16;;;;;;;9.30;4.88;;;;;;;15.76;70.02;100776.50;5091661;28;20056;-54
2022/06/13 06:47:43;;;;;;;9.98;4.68;;;;;;;15.78;69.84;100769.38;5090675;28;20476;-55
2022/06/13 06:50:13;;;;;;;10.60;4.82;;;;;;;15.72;70.88;100778.34;5089691;28;20055;-53
2022/06/13 06:52:41;;;;;;;8.50;4.95;;;;;;;15.68;70.41;100782.97;5086156;28;20048;-52
2022/06/13 07:00:44;;;;;;;11.05;5.35;;;;;;;15.76;71.07;100777.31;5095921;28;20063;-55
2022/06/13 07:03:11;;;;;;;10.23;5.03;;;;;;;15.83;71.19;100788.84;5091259;28;20056;-54
2022/06/13 07:05:39;;;;;;;8.63;5.00;;;;;;;15.99;71.20;100783.41;5098109;28;20566;-55
2022/06/13 07:08:06;;;;;;;9.00;4.85;;;;;;;16.28;69.53;100781.69;5103134;28;20407;-55
2022/06/13 07:10:34;;;;;;;11.82;5.45;;;;;;;16.42;69.04;100792.59;5083714;28;20055;-53
2022/06/13 07:13:01;;;;;;;12.45;5.97;;;;;;;16.55;68.88;100796.31;5076527;28;20060;-52
2022/06/13 07:15:34;;;;;;;11.68;6.20;;;;;;;16.58;68.41;100790.78;5084283;28;20063;-56
2022/06/13 07:18:06;;;;;;;12.18;6.00;;;;;;;16.62;68.40;100790.91;5105303;28;20062;-55
2022/06/13 07:20:38;;;;;;;9.52;5.13;;;;;;;16.63;68.84;100787.75;5076756;28;20136;-55
2022/06/13 07:23:06;;;;;;;8.88;5.30;;;;;;;17.03;68.33;100791.97;5089852;28;20493;-54
2022/06/13 07:25:34;;;;;;;8.88;4.85;;;;;;;17.37;67.06;100790.66;5103217;28;20511;-55
2022/06/13 07:28:02;;;;;;;9.02;4.97;;;;;;;17.93;66.24;100787.22;5100114;28;20055;-52
2022/06/13 07:30:30;;;;;;;11.60;4.93;;;;;;;18.11;64.39;100787.72;5093573;28;20052;-53
2022/06/13 07:32:58;;;;;;;10.30;5.25;;;;;;;18.60;63.32;100786.66;5100214;28;20071;-53
2022/06/13 07:35:27;;;;;;;11.23;5.13;;;;;;;18.74;60.45;100792.69;5077067;28;20045;-55
2022/06/13 07:40:43;;;;;;;9.18;4.55;;;;;;;19.78;58.30;100800.97;5081413;28;20079;-53
2022/06/13 07:43:21;;;;;;;10.88;5.30;;;;;;;20.15;59.15;100789.22;5079223;28;20055;-54
2022/06/13 07:45:48;;;;;;;7.70;4.28;;;;;;;20.25;56.84;100799.94;5072519;28;20056;-55
2022/06/13 07:48:16;;;;;;;10.20;4.63;;;;;;;20.64;56.67;100804.78;5080856;28;20048;-54
2022/06/13 07:50:45;;;;;;;7.80;4.05;;;;;;;21.06;54.93;100801.94;5093023;28;20059;-54
2022/06/13 07:53:12;;;;;;;7.43;4.50;;;;;;;21.07;53.25;100797.06;5085056;28;20071;-55
2022/06/13 07:55:40;;;;;;;6.95;4.03;;;;;;;21.48;52.34;100797.34;5078860;28;20052;-53
2022/06/13 07:58:08;;;;;;;6.63;3.85;;;;;;;22.10;53.20;100795.00;5076755;28;20061;-53
2022/06/13 08:00:37;;;;;;;9.35;5.05;;;;;;;22.23;48.43;100792.75;5096842;28;20048;-55
2022/06/13 08:03:06;;;;;;;;;;;;;;;22.55;48.67;100795.16;5093903;28;20427;-54
2022/06/13 08:05:33;;;;;;;14.95;6.65;;;;;;;23.03;47.75;100798.09;5083795;28;20371;-56
2022/06/13 08:08:02;;;;;;;10.38;6.50;;;;;;;23.65;48.13;100790.88;5072687;28;20048;-54
2022/06/13 08:10:30;;;;;;;11.32;6.43;;;;;;;24.32;45.77;100795.31;5103518;28;20044;-54
2022/06/13 08:12:59;;;;;;;9.90;6.90;;;;;;;24.12;45.20;100789.09;5089692;28;20052;-52
2022/06/13 08:15:26;;;;;;;10.25;7.35;;;;;;;24.08;45.70;100800.47;5078634;28;20056;-54
2022/06/13 08:17:57;;;;;;;11.93;6.97;;;;;;;25.03;44.00;100796.69;5074432;28;20807;-54
2022/06/13 08:20:24;;;;;;;8.90;6.65;;;;;;;25.30;43.59;100800.81;5107892;28;20055;-54
2022/06/13 08:22:54;;;;;;;10.82;7.47;;;;;;;25.03;43.47;100794.69;5107066;28;20052;-54
2022/06/13 08:25:26;;;;;;;10.57;6.65;;;;;;;25.24;43.76;100795.91;5101620;28;20055;-54
2022/06/13 08:27:54;;;;;;;11.20;8.20;;;;;;;25.14;43.49;100791.81;5108131;28;20404;-54
2022/06/13 08:30:22;;;;;;;12.10;8.45;;;;;;;25.39;42.29;100796.72;5089456;28;20053;-55
2022/06/13 08:32:50;;;;;;;10.95;7.75;;;;;;;25.64;42.71;100797.53;5083068;28;20085;-55
2022/06/13 08:35:17;;;;;;;12.35;8.65;;;;;;;25.71;41.72;100802.41;5084596;28;20058;-55
2022/06/13 08:37:45;;;;;;;12.68;8.35;;;;;;;25.67;41.77;100801.59;5090581;28;20408;-55
2022/06/13 08:40:13;;;;;;;13.30;8.38;;;;;;;25.60;41.98;100801.59;5092285;28;20052;-55
2022/06/13 08:42:47;;;;;;;12.43;8.25;;;;;;;25.66;40.90;100809.34;5071287;28;20519;-55
2022/06/13 08:45:20;;;;;;;11.23;8.27;;;;;;;26.61;39.31;100813.53;5084269;28;20395;-55
2022/06/13 08:47:54;;;;;;;10.98;8.32;;;;;;;26.00;40.16;100802.38;5105362;28;20620;-55
2022/06/13 08:50:33;;;;;;;11.50;7.68;;;;;;;27.09;39.40;100802.19;5084410;28;20633;-56
2022/06/13 08:53:03;;;;;;;;;;;;;;;27.82;37.81;100802.34;5075610;28;20413;-56
2022/06/13 08:55:36;;;;;;;11.88;6.85;;;;;;;28.79;35.98;100804.03;5085044;28;20283;-55
2022/06/13 08:58:15;;;;;;;9.95;6.78;;;;;;;29.51;33.03;100795.09;5085469;28;20412;-56
2022/06/13 09:00:50;;;;;;;9.90;6.20;;;;;;;29.74;32.50;100803.72;5078901;28;20055;-55
2022/06/13 09:03:23;;;;;;;7.05;5.40;;;;;;;30.27;31.75;100803.88;5087932;28;20386;-55
2022/06/13 09:05:57;;;;;;;7.57;5.60;;;;;;;32.07;30.81;100799.53;5085043;28;20054;-56
2022/06/13 09:08:32;;;;;;;7.40;4.10;;;;;;;32.33;28.87;100795.44;5100439;28;20048;-57
2022/06/13 09:11:07;;;;;;;7.90;4.90;;;;;;;31.74;29.16;100793.84;5084670;28;20492;-55
2022/06/13 09:13:44;;;;;;;7.38;5.47;;;;;;;31.04;28.97;100810.41;5080719;28;20053;-56
2022/06/13 09:16:17;;;;;;;8.50;5.38;;;;;;;30.70;30.38;100802.97;5094397;28;20051;-56
2022/06/13 09:18:50;;;;;;;11.52;5.85;;;;;;;29.95;30.44;100816.84;5079196;28;20047;-55
2022/06/13 09:21:29;;;;;;;8.52;5.05;;;;;;;29.19;31.63;100815.72;5097848;28;20048;-55
2022/06/13 09:24:07;;;;;;;7.45;4.85;;;;;;;28.19;33.33;100817.94;5075933;28;20056;-55
2022/06/13 09:26:48;;;;;;;8.82;5.38;;;;;;;27.83;34.17;100821.16;5098503;28;20518;-55
2022/06/13 09:29:23;;;;;;;9.90;6.32;;;;;;;27.88;34.91;100820.72;5105926;28;20059;-54
2022/06/13 09:31:56;;;;;;;8.20;5.25;;;;;;;29.13;34.16;100821.97;5077330;28;20062;-57
2022/06/13 09:34:33;;;;;;;8.98;6.25;;;;;;;29.16;33.06;100816.59;5071144;28;20053;-55
2022/06/13 09:37:09;;;;;;;9.45;6.07;;;;;;;29.67;32.53;100818.19;5098831;28;20052;-55
2022/06/13 09:39:36;;;;;;;7.05;5.35;;;;;;;29.75;30.69;100821.75;5100643;28;20420;-55
2022/06/13 09:42:17;;;;;;;8.32;5.65;;;;;;;29.28;31.53;100824.59;5088399;28;20064;-55
2022/06/13 09:45:15;;;;;;;7.85;5.80;;;;;;;28.49;33.14;100823.69;5083961;28;20052;-56
2022/06/13 09:47:50;;;;;;;;;;;;;;;28.16;33.29;100831.06;5094205;28;20059;-56
2022/06/13 09:50:30;;;;;;;8.77;5.47;;;;;;;29.91;29.81;100813.22;5090700;28;19920;-56
2022/06/13 09:53:03;;;;;;;7.90;4.85;;;;;;;30.36;28.84;100820.56;5103403;28;20073;-56
2022/06/13 09:55:41;;;;;;;7.35;4.18;;;;;;;30.13;28.90;100827.16;5110886;28;20472;-56
2022/06/13 09:58:17;;;;;;;10.18;6.30;;;;;;;29.56;29.76;100823.28;5110870;28;20458;-55
2022/06/13 10:00:52;;;;;;;9.93;6.30;;;;;;;28.85;31.42;100813.78;5103025;28;20423;-56
2022/06/13 10:03:32;;;;;;;9.80;6.18;;;;;;;28.16;31.69;100816.75;5106205;28;20066;-55
2022/06/13 10:06:08;;;;;;;10.07;6.45;;;;;;;28.70;31.94;100816.03;5091981;28;20058;-55
2022/06/13 10:08:50;;;;;;;9.15;5.82;;;;;;;29.97;30.28;100827.09;5103697;28;20044;-56
2022/06/13 10:11:29;;;;;;;9.05;5.35;;;;;;;30.18;29.34;100823.78;5111124;28;20056;-56
2022/06/13 10:14:06;;;;;;;;;;;;;;;29.49;30.01;100812.75;5110843;28;20055;-56
2022/06/13 10:16:44;;;;;;;9.00;6.22;;;;;;;29.19;31.45;100821.47;5109451;28;20356;-55
2022/06/13 10:19:23;;;;;;;8.77;6.28;;;;;;;28.19;32.60;100821.59;5095244;28;20052;-55
2022/06/13 10:21:59;;;;;;;11.13;6.65;;;;;;;27.20;34.20;100827.03;5090746;28;20048;-55
2022/06/13 10:24:38;;;;;;;11.02;7.18;;;;;;;27.11;34.94;100831.19;5106513;28;20419;-56
2022/06/13 10:27:12;;;;;;;9.97;7.10;;;;;;;26.92;34.95;100828.84;5095629;28;20040;-55
2022/06/13 10:29:57;;;;;;;9.20;7.00;;;;;;;29.41;31.81;100819.06;5087125;28;20458;-56
2022/06/13 10:32:45;;;;;;;8.55;6.43;;;;;;;31.36;28.68;100815.38;5090465;28;20063;-55
2022/06/13 10:35:26;;;;;;;9.50;5.80;;;;;;;32.19;27.87;100809.47;5090224;28;20051;-56
2022/06/13 10:38:08;;;;;;;10.05;6.18;;;;;;;32.51;26.52;100802.75;5098423;28;20397;-55
2022/06/13 10:40:36;;;;;;;9.10;6.25;;;;;;;30.95;27.21;100815.97;5070458;28;20056;-56
2022/06/13 10:43:05;;;;;;;10.02;5.75;;;;;;;29.91;29.41;100812.44;5082190;28;20052;-55
2022/06/13 10:45:34;;;;;;;9.55;5.50;;;;;;;28.50;29.99;100824.53;5085394;28;20520;-55
2022/06/13 10:48:12;;;;;;;9.43;5.85;;;;;;;30.08;29.29;100827.69;5083998;28;20060;-55
2022/06/13 10:50:45;;;;;;;8.07;5.15;;;;;;;30.64;27.48;100819.13;5112127;28;20059;-56
2022/06/13 10:53:19;;;;;;;8.35;5.80;;;;;;;30.75;27.12;100816.81;5104555;28;20084;-56
2022/06/13 10:55:48;;;;;;;8.98;4.82;;;;;;;32.79;25.65;100821.25;5092013;28;20048;-56
2022/06/13 10:58:20;;;;;;;7.93;5.07;;;;;;;34.68;23.41;100818.78;5098397;28;20052;-56
2022/06/13 11:01:07;;;;;;;6.22;4.25;;;;;;;36.46;20.60;100807.84;5090729;28;20059;-57
2022/06/13 11:03:36;;;;;;;8.52;4.63;;;;;;;36.42;19.25;100801.41;5080763;28;20078;-56
2022/06/13 11:06:07;;;;;;;5.88;3.65;;;;;;;37.85;18.63;100794.22;5078215;28;20048;-56
2022/06/13 11:08:37;;;;;;;9.00;3.83;;;;;;;37.78;18.52;100792.50;5087898;28;20052;-57
2022/06/13 11:11:14;;;;;;;6.65;3.20;;;;;;;37.57;18.56;100788.66;5100104;28;20059;-56
2022/06/13 11:13:43;;;;;;;8.48;3.05;;;;;;;36.34;19.63;100804.63;5077532;28;20053;-56
2022/06/13 11:24:51;;;;;;;5.80;2.90;;;;;;;34.10;22.01;100804.84;5108108;28;20063;-56
2022/06/13 11:30:34;;;;;;;6.65;2.28;;;;;;;33.33;21.39;100803.03;5105476;28;20054;-56
2022/06/13 11:33:04;;;;;;;5.70;2.40;;;;;;;32.83;21.59;100803.84;5077790;28;20055;-56
2022/06/13 11:35:38;;;;;;;4.20;2.17;;;;;;;33.16;21.41;100805.25;5088903;28;20052;-57
2022/06/13 11:38:16;;;;;;;4.95;2.22;;;;;;;33.34;20.91;100806.72;5077325;28;20053;-56
2022/06/13 11:40:47;;;;;;;3.67;1.75;;;;;;;32.48;20.94;100812.31;5086802;28;20044;-56
2022/06/13 11:43:30;;;;;;;4.65;1.88;;;;;;;32.08;20.76;100813.47;5072799;28;20048;-56
2022/06/13 11:46:02;;;;;;;3.83;1.80;;;;;;;31.22;21.57;100809.16;5088728;28;20100;-56
2022/06/13 11:48:30;;;;;;;4.45;1.55;;;;;;;30.42;23.22;100818.78;5085339;28;20404;-56
2022/06/13 11:51:02;;;;;;;3.97;1.70;;;;;;;29.60;23.26;100823.22;5099506;28;20048;-55
2022/06/13 11:53:39;;;;;;;5.03;2.03;;;;;;;28.72;24.75;100834.41;5086610;28;20058;-56
2022/06/13 11:56:11;;;;;;;5.15;2.25;;;;;;;27.68;25.80;100837.69;5085674;28;20411;-56
2022/06/13 11:58:46;;;;;;;3.70;1.80;;;;;;;26.87;27.13;100844.41;5099801;28;20360;-56
2022/06/13 12:01:23;;;;;;;5.13;1.98;;;;;;;26.37;28.53;100847.47;5107981;28;20059;-55
2022/06/13 12:04:04;;;;;;;3.97;2.08;;;;;;;28.27;27.10;100830.94;5091216;28;20048;-56
2022/06/13 12:06:41;;;;;;;5.55;2.03;;;;;;;28.80;26.78;100828.59;5098946;28;20507;-55
2022/06/13 12:09:16;;;;;;;4.07;2.20;;;;;;;30.44;25.06;100829.84;5081227;28;20118;-56
2022/06/13 12:11:46;;;;;;;3.58;2.00;;;;;;;31.85;23.76;100819.47;5099522;28;20043;-55
2022/06/13 12:14:15;;;;;;;2.80;1.73;;;;;;;32.88;21.64;100824.25;5106964;28;20404;-55
2022/06/13 12:16:56;;;;;;;4.38;1.70;;;;;;;33.34;20.87;100821.16;5107415;28;20399;-56